sensor_id;sensor_type;location;lat;lon;timestamp;pressure;altitude;pressure_sealevel;temperature;humidity
28344;BME280;15597;50.914;6.638;2023-04-08T00:00:35;101379.75;;;13.52;54.26
28344;BME280;15597;50.914;6.638;2023-04-08T00:03:02;101392.06;;;13.50;54.44
28344;BME280;15597;50.914;6.638;2023-04-08T00:05:28;101387.69;;;13.49;54.38
28344;BME280;15597;50.914;6.638;2023-04-08T00:07:53;101390.31;;;13.49;54.70
28344;BME280;15597;50.914;6.638;2023-04-08T00:10:19;101396.47;;;13.50;54.30
28344;BME280;15597;50.914;6.638;2023-04-08T00:12:46;101397.31;;;13.50;54.34
28344;BME280;15597;50.914;6.638;2023-04-08T00:15:12;101398.19;;;13.51;54.11
28344;BME280;15597;50.914;6.638;2023-04-08T00:17:38;101405.22;;;13.50;54.68
28344;BME280;15597;50.914;6.638;2023-04-08T00:20:04;101407.84;;;13.50;54.66
28344;BME280;15597;50.914;6.638;2023-04-08T00:22:30;101396.47;;;13.50;54.56
28344;BME280;15597;50.914;6.638;2023-04-08T00:24:56;101407.81;;;13.52;54.35
28344;BME280;15597;50.914;6.638;2023-04-08T00:27:22;101399.03;;;13.53;54.18
28344;BME280;15597;50.914;6.638;2023-04-08T00:29:50;101406.88;;;13.54;54.06
28344;BME280;15597;50.914;6.638;2023-04-08T00:32:15;101407.72;;;13.56;54.14
28344;BME280;15597;50.914;6.638;2023-04-08T00:34:41;101407.78;;;13.53;54.03
28344;BME280;15597;50.914;6.638;2023-04-08T00:37:08;101406.91;;;13.53;54.47
28344;BME280;15597;50.914;6.638;2023-04-08T00:39:33;101406.03;;;13.52;54.23
28344;BME280;15597;50.914;6.638;2023-04-08T00:42:00;101405.13;;;13.53;54.15
28344;BME280;15597;50.914;6.638;2023-04-08T00:44:26;101404.25;;;13.54;54.20
28344;BME280;15597;50.914;6.638;2023-04-08T00:46:52;101411.28;;;13.54;54.38
28344;BME280;15597;50.914;6.638;2023-04-08T00:49:18;101413.84;;;13.57;54.44
28344;BME280;15597;50.914;6.638;2023-04-08T00:51:44;101411.16;;;13.58;54.58
28344;BME280;15597;50.914;6.638;2023-04-08T00:54:09;101420.78;;;13.61;54.26
28344;BME280;15597;50.914;6.638;2023-04-08T00:56:35;101413.72;;;13.62;54.66
28344;BME280;15597;50.914;6.638;2023-04-08T00:59:01;101417.19;;;13.64;54.05
28344;BME280;15597;50.914;6.638;2023-04-08T01:01:32;101414.56;;;13.64;54.09
28344;BME280;15597;50.914;6.638;2023-04-08T01:04:06;101415.47;;;13.63;54.29
28344;BME280;15597;50.914;6.638;2023-04-08T01:09:27;101417.31;;;13.59;54.25
28344;BME280;15597;50.914;6.638;2023-04-08T01:11:55;101418.16;;;13.59;54.23
28344;BME280;15597;50.914;6.638;2023-04-08T01:14:24;101419.97;;;13.57;54.47
28344;BME280;15597;50.914;6.638;2023-04-08T01:16:54;101420.91;;;13.55;54.18
28344;BME280;15597;50.914;6.638;2023-04-08T01:19:28;101413.91;;;13.54;54.54
28344;BME280;15597;50.914;6.638;2023-04-08T01:22:01;101414.81;;;13.53;54.25
28344;BME280;15597;50.914;6.638;2023-04-08T01:24:30;101420.91;;;13.55;54.32
28344;BME280;15597;50.914;6.638;2023-04-08T01:26:59;101418.22;;;13.58;54.53
28344;BME280;15597;50.914;6.638;2023-04-08T01:29:26;101419.03;;;13.60;54.63
28344;BME280;15597;50.914;6.638;2023-04-08T01:31:53;101424.31;;;13.60;54.43
28344;BME280;15597;50.914;6.638;2023-04-08T01:34:21;101420.78;;;13.59;54.49
28344;BME280;15597;50.914;6.638;2023-04-08T01:36:48;101420.78;;;13.59;54.71
28344;BME280;15597;50.914;6.638;2023-04-08T01:39:15;101419.03;;;13.60;54.38
28344;BME280;15597;50.914;6.638;2023-04-08T01:41:44;101420.78;;;13.59;54.30
28344;BME280;15597;50.914;6.638;2023-04-08T01:44:10;101420.78;;;13.59;54.81
28344;BME280;15597;50.914;6.638;2023-04-08T01:46:38;101428.63;;;13.63;54.48
28344;BME280;15597;50.914;6.638;2023-04-08T01:49:06;101420.72;;;13.63;54.72
28344;BME280;15597;50.914;6.638;2023-04-08T01:51:36;101426.88;;;13.62;54.77
28344;BME280;15597;50.914;6.638;2023-04-08T01:54:01;101418.16;;;13.59;55.01
28344;BME280;15597;50.914;6.638;2023-04-08T01:56:28;101422.56;;;13.59;54.85
28344;BME280;15597;50.914;6.638;2023-04-08T01:58:57;101426.09;;;13.58;55.10
28344;BME280;15597;50.914;6.638;2023-04-08T02:01:26;101425.22;;;13.57;55.10
28344;BME280;15597;50.914;6.638;2023-04-08T02:03:54;101426.13;;;13.56;54.96
28344;BME280;15597;50.914;6.638;2023-04-08T02:06:23;101432.28;;;13.55;55.20
28344;BME280;15597;50.914;6.638;2023-04-08T02:08:50;101427.06;;;13.54;55.15
28344;BME280;15597;50.914;6.638;2023-04-08T02:11:16;101431.50;;;13.50;55.13
28344;BME280;15597;50.914;6.638;2023-04-08T02:13:41;101428.03;;;13.50;55.11
28344;BME280;15597;50.914;6.638;2023-04-08T02:16:41;101427.19;;;13.46;55.42
28344;BME280;15597;50.914;6.638;2023-04-08T02:19:14;101430.72;;;13.45;54.96
28344;BME280;15597;50.914;6.638;2023-04-08T02:21:47;101441.25;;;13.45;55.13
28344;BME280;15597;50.914;6.638;2023-04-08T02:24:16;101444.72;;;13.47;55.27
28344;BME280;15597;50.914;6.638;2023-04-08T02:26:43;101435.91;;;13.48;55.38
28344;BME280;15597;50.914;6.638;2023-04-08T02:29:12;101435.06;;;13.48;54.92
28344;BME280;15597;50.914;6.638;2023-04-08T02:31:41;101434.19;;;13.47;55.22
28344;BME280;15597;50.914;6.638;2023-04-08T02:34:11;101434.25;;;13.44;55.50
28344;BME280;15597;50.914;6.638;2023-04-08T02:36:38;101434.25;;;13.44;55.57
28344;BME280;15597;50.914;6.638;2023-04-08T02:39:05;101431.63;;;13.44;55.75
28344;BME280;15597;50.914;6.638;2023-04-08T02:41:31;101433.41;;;13.43;55.72
28344;BME280;15597;50.914;6.638;2023-04-08T02:43:56;101434.34;;;13.38;55.95
28344;BME280;15597;50.914;6.638;2023-04-08T02:46:22;101436.13;;;13.36;56.03
28344;BME280;15597;50.914;6.638;2023-04-08T02:48:48;101433.56;;;13.34;55.75
28344;BME280;15597;50.914;6.638;2023-04-08T02:51:14;101429.22;;;13.32;55.51
28344;BME280;15597;50.914;6.638;2023-04-08T02:53:39;101438.88;;;13.29;55.92
28344;BME280;15597;50.914;6.638;2023-04-08T02:56:05;101429.25;;;13.28;55.59
28344;BME280;15597;50.914;6.638;2023-04-08T02:58:31;101437.19;;;13.27;55.70
28344;BME280;15597;50.914;6.638;2023-04-08T03:00:57;101435.47;;;13.26;55.97
28344;BME280;15597;50.914;6.638;2023-04-08T03:03:22;101438.03;;;13.27;55.68
28344;BME280;15597;50.914;6.638;2023-04-08T03:05:53;101439.78;;;13.28;55.48
28344;BME280;15597;50.914;6.638;2023-04-08T03:08:19;101439.78;;;13.28;55.66
28344;BME280;15597;50.914;6.638;2023-04-08T03:10:45;101438.94;;;13.28;55.34
28344;BME280;15597;50.914;6.638;2023-04-08T03:13:10;101439.78;;;13.28;55.53
28344;BME280;15597;50.914;6.638;2023-04-08T03:15:36;101436.31;;;13.26;55.50
28344;BME280;15597;50.914;6.638;2023-04-08T03:18:02;101438.03;;;13.27;55.79
28344;BME280;15597;50.914;6.638;2023-04-08T03:20:28;101437.22;;;13.25;56.07
28344;BME280;15597;50.914;6.638;2023-04-08T03:22:53;101443.31;;;13.27;55.98
28344;BME280;15597;50.914;6.638;2023-04-08T03:25:18;101440.69;;;13.27;55.70
28344;BME280;15597;50.914;6.638;2023-04-08T03:27:44;101440.69;;;13.27;56.17
28344;BME280;15597;50.914;6.638;2023-04-08T03:30:10;101438.94;;;13.26;56.05
28344;BME280;15597;50.914;6.638;2023-04-08T03:32:36;101441.56;;;13.26;55.65
28344;BME280;15597;50.914;6.638;2023-04-08T03:35:01;101436.31;;;13.26;55.91
28344;BME280;15597;50.914;6.638;2023-04-08T03:37:27;101443.31;;;13.27;55.50
28344;BME280;15597;50.914;6.638;2023-04-08T03:39:54;101442.44;;;13.27;55.78
28344;BME280;15597;50.914;6.638;2023-04-08T03:42:19;101438.03;;;13.27;55.78
28344;BME280;15597;50.914;6.638;2023-04-08T03:44:45;101436.31;;;13.26;55.72
28344;BME280;15597;50.914;6.638;2023-04-08T03:47:11;101438.94;;;13.28;56.01
28344;BME280;15597;50.914;6.638;2023-04-08T03:49:36;101438.94;;;13.28;55.87
28344;BME280;15597;50.914;6.638;2023-04-08T03:52:02;101442.44;;;13.27;55.71
28344;BME280;15597;50.914;6.638;2023-04-08T03:54:28;101440.66;;;13.29;56.19
28344;BME280;15597;50.914;6.638;2023-04-08T03:56:54;101443.28;;;13.29;56.07
28344;BME280;15597;50.914;6.638;2023-04-08T03:59:20;101449.44;;;13.28;56.26
28344;BME280;15597;50.914;6.638;2023-04-08T04:01:45;101445.09;;;13.27;56.21
28344;BME280;15597;50.914;6.638;2023-04-08T04:04:12;101444.19;;;13.28;55.84
28344;BME280;15597;50.914;6.638;2023-04-08T04:06:37;101444.19;;;13.26;55.77
28344;BME280;15597;50.914;6.638;2023-04-08T04:09:03;101443.31;;;13.27;56.00
28344;BME280;15597;50.914;6.638;2023-04-08T04:11:29;101447.72;;;13.27;56.10
28344;BME280;15597;50.914;6.638;2023-04-08T04:13:54;101449.44;;;13.28;55.78
28344;BME280;15597;50.914;6.638;2023-04-08T04:16:20;101452.91;;;13.30;56.08
28344;BME280;15597;50.914;6.638;2023-04-08T04:18:45;101452.88;;;13.32;55.88
28344;BME280;15597;50.914;6.638;2023-04-08T04:21:11;101451.13;;;13.30;55.85
28344;BME280;15597;50.914;6.638;2023-04-08T04:23:36;101456.38;;;13.30;55.92
28344;BME280;15597;50.914;6.638;2023-04-08T04:26:07;101459.91;;;13.31;55.77
28344;BME280;15597;50.914;6.638;2023-04-08T04:28:32;101462.47;;;13.33;55.73
28344;BME280;15597;50.914;6.638;2023-04-08T04:30:58;101466.00;;;13.32;55.95
28344;BME280;15597;50.914;6.638;2023-04-08T04:33:23;101469.47;;;13.34;56.25
28344;BME280;15597;50.914;6.638;2023-04-08T04:35:49;101460.72;;;13.33;56.08
28344;BME280;15597;50.914;6.638;2023-04-08T04:38:15;101467.69;;;13.36;56.41
28344;BME280;15597;50.914;6.638;2023-04-08T04:40:40;101474.72;;;13.34;56.07
28344;BME280;15597;50.914;6.638;2023-04-08T04:43:06;101471.25;;;13.32;56.38
28344;BME280;15597;50.914;6.638;2023-04-08T04:45:31;101466.06;;;13.30;56.12
28344;BME280;15597;50.914;6.638;2023-04-08T04:47:57;101466.97;;;13.27;55.93
28344;BME280;15597;50.914;6.638;2023-04-08T04:50:22;101478.38;;;13.26;56.24
28344;BME280;15597;50.914;6.638;2023-04-08T04:52:48;101474.91;;;13.24;56.05
28344;BME280;15597;50.914;6.638;2023-04-08T04:55:14;101480.16;;;13.24;56.37
28344;BME280;15597;50.914;6.638;2023-04-08T04:57:40;101480.16;;;13.23;55.97
28344;BME280;15597;50.914;6.638;2023-04-08T05:00:06;101478.44;;;13.22;55.91
28344;BME280;15597;50.914;6.638;2023-04-08T05:02:33;101485.47;;;13.21;56.10
28344;BME280;15597;50.914;6.638;2023-04-08T05:04:58;101481.09;;;13.20;56.23
28344;BME280;15597;50.914;6.638;2023-04-08T05:07:24;101485.59;;;13.15;56.33
28344;BME280;15597;50.914;6.638;2023-04-08T05:09:49;101486.53;;;13.11;56.43
28344;BME280;15597;50.914;6.638;2023-04-08T05:12:15;101484.81;;;13.08;56.33
28344;BME280;15597;50.914;6.638;2023-04-08T05:14:40;101486.59;;;13.08;56.68
28344;BME280;15597;50.914;6.638;2023-04-08T05:17:06;101490.94;;;13.09;56.74
28344;BME280;15597;50.914;6.638;2023-04-08T05:19:32;101485.66;;;13.10;56.35
28344;BME280;15597;50.914;6.638;2023-04-08T05:21:57;101492.69;;;13.10;56.53
28344;BME280;15597;50.914;6.638;2023-04-08T05:24:23;101497.09;;;13.08;56.70
28344;BME280;15597;50.914;6.638;2023-04-08T05:26:48;101494.53;;;13.05;56.86
28344;BME280;15597;50.914;6.638;2023-04-08T05:29:17;101503.34;;;13.00;56.96
28344;BME280;15597;50.914;6.638;2023-04-08T05:31:43;101501.66;;;12.96;57.03
28344;BME280;15597;50.914;6.638;2023-04-08T05:34:09;101500.84;;;12.93;56.92
28344;BME280;15597;50.914;6.638;2023-04-08T05:36:36;101495.59;;;12.93;56.99
28344;BME280;15597;50.914;6.638;2023-04-08T05:39:01;101509.59;;;12.92;57.11
28344;BME280;15597;50.914;6.638;2023-04-08T05:41:27;101511.38;;;12.91;56.83
28344;BME280;15597;50.914;6.638;2023-04-08T05:43:52;101509.66;;;12.89;56.79
28344;BME280;15597;50.914;6.638;2023-04-08T05:46:18;101512.34;;;12.87;57.30
28344;BME280;15597;50.914;6.638;2023-04-08T05:48:43;101515.84;;;12.86;57.39
28344;BME280;15597;50.914;6.638;2023-04-08T05:51:15;101516.75;;;12.85;57.07
28344;BME280;15597;50.914;6.638;2023-04-08T05:53:44;101522.84;;;12.87;56.90
28344;BME280;15597;50.914;6.638;2023-04-08T05:56:09;101519.31;;;12.88;57.33
28344;BME280;15597;50.914;6.638;2023-04-08T05:58:35;101516.63;;;12.91;57.22
28344;BME280;15597;50.914;6.638;2023-04-08T06:01:00;101517.47;;;12.93;57.12
28344;BME280;15597;50.914;6.638;2023-04-08T06:03:26;101523.59;;;12.94;57.33
28344;BME280;15597;50.914;6.638;2023-04-08T06:05:51;101521.84;;;12.94;57.40
28344;BME280;15597;50.914;6.638;2023-04-08T06:08:17;101535.81;;;12.96;56.85
28344;BME280;15597;50.914;6.638;2023-04-08T06:10:51;101536.75;;;12.92;56.80
28344;BME280;15597;50.914;6.638;2023-04-08T06:13:17;101535.81;;;12.95;57.23
28344;BME280;15597;50.914;6.638;2023-04-08T06:15:44;101536.72;;;12.95;57.26
28344;BME280;15597;50.914;6.638;2023-04-08T06:18:09;101544.56;;;12.97;57.15
28344;BME280;15597;50.914;6.638;2023-04-08T06:20:35;101545.38;;;13.00;57.23
28344;BME280;15597;50.914;6.638;2023-04-08T06:23:01;101539.25;;;13.02;56.99
28344;BME280;15597;50.914;6.638;2023-04-08T06:25:26;101543.66;;;12.99;57.19
28344;BME280;15597;50.914;6.638;2023-04-08T06:27:52;101547.97;;;13.02;57.26
28344;BME280;15597;50.914;6.638;2023-04-08T06:30:17;101548.84;;;13.03;57.58
28344;BME280;15597;50.914;6.638;2023-04-08T06:32:43;101549.69;;;13.03;57.12
28344;BME280;15597;50.914;6.638;2023-04-08T06:35:12;101557.56;;;13.05;57.08
28344;BME280;15597;50.914;6.638;2023-04-08T06:37:37;101560.19;;;13.05;57.26
28344;BME280;15597;50.914;6.638;2023-04-08T06:40:04;101564.56;;;13.06;57.67
28344;BME280;15597;50.914;6.638;2023-04-08T06:42:30;101561.06;;;13.05;57.47
28344;BME280;15597;50.914;6.638;2023-04-08T06:45:09;101565.41;;;13.06;57.36
28344;BME280;15597;50.914;6.638;2023-04-08T06:47:34;101562.78;;;13.08;57.61
28344;BME280;15597;50.914;6.638;2023-04-08T06:50:00;101565.41;;;13.08;57.43
28344;BME280;15597;50.914;6.638;2023-04-08T06:52:26;101571.56;;;13.07;57.36
28344;BME280;15597;50.914;6.638;2023-04-08T06:54:51;101569.81;;;13.06;57.68
28344;BME280;15597;50.914;6.638;2023-04-08T06:57:17;101575.94;;;13.06;58.10
28344;BME280;15597;50.914;6.638;2023-04-08T06:59:42;101576.81;;;13.07;58.06
28344;BME280;15597;50.914;6.638;2023-04-08T07:02:08;101578.53;;;13.08;58.11
28344;BME280;15597;50.914;6.638;2023-04-08T07:04:33;101572.41;;;13.07;58.11
28344;BME280;15597;50.914;6.638;2023-04-08T07:06:59;101575.03;;;13.07;58.11
28344;BME280;15597;50.914;6.638;2023-04-08T07:09:24;101580.28;;;13.09;58.56
28344;BME280;15597;50.914;6.638;2023-04-08T07:11:50;101580.22;;;13.12;58.42
28344;BME280;15597;50.914;6.638;2023-04-08T07:14:17;101581.97;;;13.13;58.65
28344;BME280;15597;50.914;6.638;2023-04-08T07:16:43;101582.84;;;13.12;58.45
28344;BME280;15597;50.914;6.638;2023-04-08T07:19:08;101587.22;;;13.13;58.83
28344;BME280;15597;50.914;6.638;2023-04-08T07:21:34;101581.97;;;13.13;58.49
28344;BME280;15597;50.914;6.638;2023-04-08T07:24:00;101581.03;;;13.15;58.20
28344;BME280;15597;50.914;6.638;2023-04-08T07:26:25;101588.91;;;13.17;58.21
28344;BME280;15597;50.914;6.638;2023-04-08T07:28:52;101590.59;;;13.20;58.10
28344;BME280;15597;50.914;6.638;2023-04-08T07:31:18;101587.06;;;13.22;58.10
28344;BME280;15597;50.914;6.638;2023-04-08T07:33:44;101591.38;;;13.25;57.78
28344;BME280;15597;50.914;6.638;2023-04-08T07:36:10;101601.00;;;13.27;58.46
28344;BME280;15597;50.914;6.638;2023-04-08T07:38:39;101592.16;;;13.32;58.63
28344;BME280;15597;50.914;6.638;2023-04-08T07:41:05;101603.50;;;13.35;57.76
28344;BME280;15597;50.914;6.638;2023-04-08T07:43:32;101603.47;;;13.38;57.57
28344;BME280;15597;50.914;6.638;2023-04-08T07:46:04;101603.47;;;13.37;57.43
28344;BME280;15597;50.914;6.638;2023-04-08T07:48:31;101595.56;;;13.38;58.21
28344;BME280;15597;50.914;6.638;2023-04-08T07:50:57;101607.78;;;13.41;57.90
28344;BME280;15597;50.914;6.638;2023-04-08T07:53:23;101613.03;;;13.44;57.78
28344;BME280;15597;50.914;6.638;2023-04-08T07:55:51;101616.53;;;13.44;57.79
28344;BME280;15597;50.914;6.638;2023-04-08T07:58:16;101613.91;;;13.44;57.64
28344;BME280;15597;50.914;6.638;2023-04-08T08:00:42;101626.16;;;13.46;57.50
28344;BME280;15597;50.914;6.638;2023-04-08T08:03:08;101624.38;;;13.48;57.57
28344;BME280;15597;50.914;6.638;2023-04-08T08:05:35;101628.75;;;13.47;57.33
28344;BME280;15597;50.914;6.638;2023-04-08T08:08:00;101627.00;;;13.46;57.40
28344;BME280;15597;50.914;6.638;2023-04-08T08:10:26;101627.00;;;13.46;57.15
28344;BME280;15597;50.914;6.638;2023-04-08T08:12:51;101641.00;;;13.48;57.38
28344;BME280;15597;50.914;6.638;2023-04-08T08:15:17;101639.22;;;13.50;57.19
28344;BME280;15597;50.914;6.638;2023-04-08T08:17:43;101640.09;;;13.49;56.84
28344;BME280;15597;50.914;6.638;2023-04-08T08:20:09;101648.81;;;13.51;57.19
28344;BME280;15597;50.914;6.638;2023-04-08T08:22:35;101635.69;;;13.53;57.36
28344;BME280;15597;50.914;6.638;2023-04-08T08:25:00;101636.47;;;13.56;56.62
28344;BME280;15597;50.914;6.638;2023-04-08T08:27:26;101640.84;;;13.57;56.79
28344;BME280;15597;50.914;6.638;2023-04-08T08:29:51;101633.84;;;13.56;56.79
28344;BME280;15597;50.914;6.638;2023-04-08T08:32:17;101640.78;;;13.61;56.62
28344;BME280;15597;50.914;6.638;2023-04-08T08:34:43;101642.53;;;13.62;56.84
28344;BME280;15597;50.914;6.638;2023-04-08T08:37:08;101646.81;;;13.66;57.11
28344;BME280;15597;50.914;6.638;2023-04-08T08:39:34;101643.28;;;13.68;56.80
28344;BME280;15597;50.914;6.638;2023-04-08T08:42:00;101640.56;;;13.73;56.45
28344;BME280;15597;50.914;6.638;2023-04-08T08:44:25;101642.28;;;13.74;56.62
28344;BME280;15597;50.914;6.638;2023-04-08T08:46:51;101655.41;;;13.77;56.44
28344;BME280;15597;50.914;6.638;2023-04-08T08:49:17;101653.63;;;13.79;56.30
28344;BME280;15597;50.914;6.638;2023-04-08T08:51:45;101658.84;;;13.82;56.60
28344;BME280;15597;50.914;6.638;2023-04-08T08:54:11;101662.25;;;13.87;56.48
28344;BME280;15597;50.914;6.638;2023-04-08T08:56:37;101664.84;;;13.91;56.20
28344;BME280;15597;50.914;6.638;2023-04-08T08:59:02;101663.94;;;13.92;56.14
28344;BME280;15597;50.914;6.638;2023-04-08T09:04:12;101656.94;;;13.91;55.89
28344;BME280;15597;50.914;6.638;2023-04-08T09:06:41;101661.25;;;13.95;55.75
28344;BME280;15597;50.914;6.638;2023-04-08T09:09:07;101661.31;;;13.92;55.71
28344;BME280;15597;50.914;6.638;2023-04-08T09:11:40;101656.94;;;13.91;55.83
28344;BME280;15597;50.914;6.638;2023-04-08T09:14:22;101664.88;;;13.87;56.17
28344;BME280;15597;50.914;6.638;2023-04-08T09:16:48;101659.47;;;13.97;55.86
28344;BME280;15597;50.914;6.638;2023-04-08T09:19:14;101664.66;;;14.00;55.92
28344;BME280;15597;50.914;6.638;2023-04-08T09:21:41;101662.75;;;14.08;56.04
28344;BME280;15597;50.914;6.638;2023-04-08T09:24:07;101669.69;;;14.12;55.71
28344;BME280;15597;50.914;6.638;2023-04-08T09:26:34;101665.22;;;14.16;56.15
28344;BME280;15597;50.914;6.638;2023-04-08T09:29:05;101666.28;;;14.07;56.02
28344;BME280;15597;50.914;6.638;2023-04-08T09:31:36;101665.31;;;14.11;55.75
28344;BME280;15597;50.914;6.638;2023-04-08T09:34:15;101667.94;;;14.11;56.28
28344;BME280;15597;50.914;6.638;2023-04-08T09:36:42;101673.16;;;14.14;55.31
28344;BME280;15597;50.914;6.638;2023-04-08T09:39:11;101674.94;;;14.12;55.71
28344;BME280;15597;50.914;6.638;2023-04-08T09:41:38;101676.63;;;14.16;55.50
28344;BME280;15597;50.914;6.638;2023-04-08T09:44:06;101672.97;;;14.24;55.31
28344;BME280;15597;50.914;6.638;2023-04-08T09:46:38;101672.84;;;14.30;55.59
28344;BME280;15597;50.914;6.638;2023-04-08T09:49:06;101673.50;;;14.41;54.93
28344;BME280;15597;50.914;6.638;2023-04-08T09:51:49;101678.84;;;14.38;55.27
28344;BME280;15597;50.914;6.638;2023-04-08T09:54:20;101674.47;;;14.37;54.73
28344;BME280;15597;50.914;6.638;2023-04-08T09:56:53;101680.56;;;14.39;55.25
28344;BME280;15597;50.914;6.638;2023-04-08T09:59:24;101672.53;;;14.45;55.16
28344;BME280;15597;50.914;6.638;2023-04-08T10:01:53;101671.47;;;14.56;55.40
28344;BME280;15597;50.914;6.638;2023-04-08T10:04:22;101671.38;;;14.60;55.11
28344;BME280;15597;50.914;6.638;2023-04-08T10:06:56;101670.44;;;14.63;55.03
28344;BME280;15597;50.914;6.638;2023-04-08T10:09:22;101665.91;;;14.71;54.67
28344;BME280;15597;50.914;6.638;2023-04-08T10:11:48;101673.78;;;14.73;54.71
28344;BME280;15597;50.914;6.638;2023-04-08T10:14:14;101672.06;;;14.70;54.33
28344;BME280;15597;50.914;6.638;2023-04-08T10:16:40;101677.44;;;14.64;54.30
28344;BME280;15597;50.914;6.638;2023-04-08T10:27:42;101677.41;;;14.66;53.95
28344;BME280;15597;50.914;6.638;2023-04-08T10:32:57;101686.22;;;14.63;54.00
28344;BME280;15597;50.914;6.638;2023-04-08T10:35:31;101675.88;;;14.55;54.01
28344;BME280;15597;50.914;6.638;2023-04-08T10:37:58;101676.72;;;14.57;54.33
28344;BME280;15597;50.914;6.638;2023-04-08T10:40:24;101673.13;;;14.60;54.67
28344;BME280;15597;50.914;6.638;2023-04-08T10:42:57;101675.75;;;14.61;53.95
28344;BME280;15597;50.914;6.638;2023-04-08T10:45:23;101679.97;;;14.69;54.42
28344;BME280;15597;50.914;6.638;2023-04-08T10:47:49;101670.19;;;14.75;54.11
28344;BME280;15597;50.914;6.638;2023-04-08T10:50:16;101669.22;;;14.80;54.24
28344;BME280;15597;50.914;6.638;2023-04-08T10:52:49;101668.31;;;14.81;54.34
28344;BME280;15597;50.914;6.638;2023-04-08T10:55:15;101665.44;;;14.93;54.21
28344;BME280;15597;50.914;6.638;2023-04-08T10:57:42;101666.28;;;14.95;53.92
28344;BME280;15597;50.914;6.638;2023-04-08T11:00:16;101658.38;;;14.94;54.30
28344;BME280;15597;50.914;6.638;2023-04-08T11:02:42;101660.94;;;14.98;53.59
28344;BME280;15597;50.914;6.638;2023-04-08T11:05:11;101665.25;;;15.01;54.01
28344;BME280;15597;50.914;6.638;2023-04-08T11:07:42;101662.63;;;15.01;53.85
28344;BME280;15597;50.914;6.638;2023-04-08T11:10:08;101666.00;;;15.08;53.83
28344;BME280;15597;50.914;6.638;2023-04-08T11:12:34;101666.63;;;15.17;53.83
28344;BME280;15597;50.914;6.638;2023-04-08T11:15:03;101662.19;;;15.19;53.50
28344;BME280;15597;50.914;6.638;2023-04-08T11:17:30;101667.47;;;15.19;53.38
28344;BME280;15597;50.914;6.638;2023-04-08T11:19:58;101668.41;;;15.17;53.46
28344;BME280;15597;50.914;6.638;2023-04-08T11:22:27;101671.34;;;15.04;54.19
28344;BME280;15597;50.914;6.638;2023-04-08T11:24:54;101667.66;;;15.12;54.16
28344;BME280;15597;50.914;6.638;2023-04-08T11:27:20;101677.16;;;15.19;53.55
28344;BME280;15597;50.914;6.638;2023-04-08T11:29:51;101675.28;;;15.23;53.35
28344;BME280;15597;50.914;6.638;2023-04-08T11:32:20;101665.66;;;15.22;53.76
28344;BME280;15597;50.914;6.638;2023-04-08T11:34:48;101663.81;;;15.25;53.47
28344;BME280;15597;50.914;6.638;2023-04-08T11:37:14;101662.88;;;15.28;53.51
28344;BME280;15597;50.914;6.638;2023-04-08T11:39:43;101661.94;;;15.30;53.70
28344;BME280;15597;50.914;6.638;2023-04-08T11:42:30;101661.88;;;15.33;53.67
28344;BME280;15597;50.914;6.638;2023-04-08T11:44:55;101652.91;;;15.41;53.16
28344;BME280;15597;50.914;6.638;2023-04-08T11:47:22;101659.00;;;15.43;53.02
28344;BME280;15597;50.914;6.638;2023-04-08T11:49:54;101661.72;;;15.40;53.07
28344;BME280;15597;50.914;6.638;2023-04-08T11:52:20;101658.19;;;15.41;53.13
28344;BME280;15597;50.914;6.638;2023-04-08T11:54:47;101656.28;;;15.46;52.98
28344;BME280;15597;50.914;6.638;2023-04-08T11:57:13;101663.38;;;15.44;52.82
28344;BME280;15597;50.914;6.638;2023-04-08T11:59:39;101670.31;;;15.48;52.83
28344;BME280;15597;50.914;6.638;2023-04-08T12:02:06;101666.69;;;15.52;52.61
28344;BME280;15597;50.914;6.638;2023-04-08T12:04:32;101661.31;;;15.57;52.72
28344;BME280;15597;50.914;6.638;2023-04-08T12:06:58;101664.72;;;15.60;52.75
28344;BME280;15597;50.914;6.638;2023-04-08T12:09:23;101672.63;;;15.60;52.44
28344;BME280;15597;50.914;6.638;2023-04-08T12:11:49;101669.06;;;15.63;52.45
28344;BME280;15597;50.914;6.638;2023-04-08T12:14:14;101669.91;;;15.63;52.55
28344;BME280;15597;50.914;6.638;2023-04-08T12:16:40;101665.53;;;15.64;52.39
28344;BME280;15597;50.914;6.638;2023-04-08T12:19:05;101662.81;;;15.66;52.22
28344;BME280;15597;50.914;6.638;2023-04-08T12:21:31;101669.75;;;15.70;52.25
28344;BME280;15597;50.914;6.638;2023-04-08T12:23:58;101672.38;;;15.71;52.10
28344;BME280;15597;50.914;6.638;2023-04-08T12:26:23;101671.50;;;15.71;52.05
28344;BME280;15597;50.914;6.638;2023-04-08T12:28:49;101672.41;;;15.70;51.79
28344;BME280;15597;50.914;6.638;2023-04-08T12:31:14;101671.66;;;15.65;52.01
28344;BME280;15597;50.914;6.638;2023-04-08T12:33:40;101670.88;;;15.61;51.72
28344;BME280;15597;50.914;6.638;2023-04-08T12:36:06;101670.91;;;15.59;51.65
28344;BME280;15597;50.914;6.638;2023-04-08T12:38:31;101673.47;;;15.62;51.70
28344;BME280;15597;50.914;6.638;2023-04-08T12:40:57;101668.09;;;15.66;51.67
28344;BME280;15597;50.914;6.638;2023-04-08T12:43:23;101659.28;;;15.67;51.23
28344;BME280;15597;50.914;6.638;2023-04-08T12:45:49;101664.47;;;15.70;50.81
28344;BME280;15597;50.914;6.638;2023-04-08T12:48:15;101673.22;;;15.72;50.81
28344;BME280;15597;50.914;6.638;2023-04-08T12:50:41;101668.81;;;15.72;50.58
28344;BME280;15597;50.914;6.638;2023-04-08T12:53:06;101674.09;;;15.72;50.31
28344;BME280;15597;50.914;6.638;2023-04-08T12:55:32;101670.56;;;15.73;50.15
28344;BME280;15597;50.914;6.638;2023-04-08T12:58:00;101670.50;;;15.75;50.30
28344;BME280;15597;50.914;6.638;2023-04-08T13:00:26;101664.31;;;15.76;50.11
28344;BME280;15597;50.914;6.638;2023-04-08T13:02:51;101665.22;;;15.76;50.36
28344;BME280;15597;50.914;6.638;2023-04-08T13:05:17;101661.81;;;15.71;50.66